Portada
METAR-TAF:

METAR-TAF

Aeroports :

Manta, Equador

latitud: 00-57S, longitud: 080-41W, altitud: 13 m

Observació

L'informe es va fer fa 35 minuts, a les 10:00 UTC
Vent 7 kt del Sud/Sud-Oest
Temperatura 22°C
Humitat 88%
Pressió 1012 hPa
Visibilitat 10 km o més
Cel cobert a una alçada de 2000 ft

METAR: SEMT 091000Z 21007KT 9999 OVC020 22/20 Q1012

Hora: 05:35 (10:35 UTC)

Pronòstic

L'informe es va fer fa 6 hores i 10 minuts, a les 04:25 UTC
Pronòstic vàlid del 09 a les 06 UTC al 10 a les 06 UTC
Vent 8 kt del Sud-Oest
Visibilitat 10 km o més
Cel cobert a una alçada de 2000 ft
Evolucionant progressivament
l' 09 a les 14 UTC al 09 a les 15 UTC
Cel ennuvolat a una alçada de 2300 ft

TAF: SEMT 090425Z 0906/1006 22008KT 9999 OVC020 BECMG 0914/0915 BKN023 TX27/0920Z TN21/0910Z

Observacions i pronòstics meteorològics de més de 4000 aeroports (METAR i TAF).

Les estacions disponibles són els punts grocs i vermells al mapa.

Posi el ratolí al punt desitjat per veure el nom de l'estació.

Feu clic per veure les observacions i els pronòstics meteorològics.

Per canviar el mapa: feu clic els botons verds amb una creu de color negre per apropar; al botó verd amb un guió per allunyar la imatge; o en les fletxes verdes per a mapes adjacents.


METAR-TAF: